Time;durP1;ratioP1;P1;durP2;ratioP2;P2;SDS_P1;SDS_P2;PMS_P1;PMS_P2;Temp;Humidity;BMP_temperature;BMP_pressure;BME280_temperature;BME280_humidity;BME280_pressure;Samples;Min_cycle;Max_cycle;Signal;HPM_P1;HPM_P2
2022/06/23 00:00:36;;;;;;;;;;;19.00;99.90;;;;;;4955318;29;19922;-74
2022/06/23 00:03:05;;;;;;;;;;;19.00;99.90;;;;;;4964236;28;19926;-75
2022/06/23 00:05:39;;;;;;;;;;;19.00;99.90;;;;;;4970682;28;19922;-74
2022/06/23 00:08:12;;;;;;;;;;;19.00;99.90;;;;;;4955931;28;19922;-74
2022/06/23 00:10:48;;;;;;;;;;;18.90;99.90;;;;;;4954849;28;19949;-74
2022/06/23 00:13:24;;;;;;;;;;;18.90;99.90;;;;;;4952877;29;20421;-75
2022/06/23 00:15:56;;;;;;;;;;;18.90;99.90;;;;;;4958015;28;19926;-74
2022/06/23 00:18:24;;;;;;;;;;;18.90;99.90;;;;;;4967288;28;19966;-75
2022/06/23 00:21:00;;;;;;;;;;;18.90;99.90;;;;;;4954686;29;19929;-74
2022/06/23 00:23:35;;;;;;;;;;;18.80;99.90;;;;;;4952601;29;20016;-74
2022/06/23 00:26:04;;;;;;;;;;;18.80;99.90;;;;;;4968403;28;19922;-74
2022/06/23 00:28:40;;;;;;;;;;;18.80;99.90;;;;;;4967685;28;19923;-74
2022/06/23 00:31:24;;;;;;;;;;;18.80;99.90;;;;;;4954376;29;19922;-74
2022/06/23 00:33:57;;;;;;;;;;;18.80;99.90;;;;;;4967446;28;19929;-74
2022/06/23 00:36:35;;;;;;;;;;;18.80;99.90;;;;;;4951012;28;19976;-74
2022/06/23 00:39:20;;;;;;;;;;;18.80;99.90;;;;;;4953763;29;19922;-74
2022/06/23 00:41:51;;;;;;;;;;;18.70;99.90;;;;;;4954917;28;20383;-74
2022/06/23 00:44:32;;;;;;;;;;;18.70;99.90;;;;;;4965225;28;19926;-74
2022/06/23 00:47:06;;;;;;;;;;;18.70;99.90;;;;;;4951772;29;19933;-74
2022/06/23 00:49:46;;;;;;;;;;;18.60;99.90;;;;;;4952084;28;19922;-74
2022/06/23 00:52:22;;;;;;;;;;;18.50;99.90;;;;;;4953406;29;19922;-74
2022/06/23 00:54:56;;;;;;;;;;;18.40;99.90;;;;;;4953026;29;19930;-74
2022/06/23 00:57:33;;;;;;;;;;;18.40;99.90;;;;;;4953226;28;20024;-74
2022/06/23 01:00:14;;;;;;;;;;;18.40;99.90;;;;;;4953078;28;19923;-74
2022/06/23 01:02:51;;;;;;;;;;;18.40;99.90;;;;;;4967168;28;19926;-74
2022/06/23 01:05:26;;;;;;;;;;;18.40;99.90;;;;;;4952571;29;20294;-74
2022/06/23 01:07:53;;;;;;;;;;;18.40;99.90;;;;;;4951358;28;19930;-74
2022/06/23 01:10:32;;;;;;;;;;;18.40;99.90;;;;;;4952506;29;19922;-74
2022/06/23 01:13:11;;;;;;;;;;;18.40;99.90;;;;;;4949558;29;19926;-74
2022/06/23 01:15:40;;;;;;;;;;;18.30;99.90;;;;;;4948081;29;20431;-74
2022/06/23 01:18:14;;;;;;;;;;;18.30;99.90;;;;;;4963464;28;19929;-73
2022/06/23 01:20:52;;;;;;;;;;;18.30;99.90;;;;;;4953803;28;20280;-74
2022/06/23 01:23:30;;;;;;;;;;;18.30;99.90;;;;;;4953253;28;19922;-73
2022/06/23 01:26:20;;;;;;;;;;;18.40;99.90;;;;;;4948931;28;20423;-74
2022/06/23 01:29:12;;;;;;;;;;;18.40;99.90;;;;;;4951464;29;19972;-74
2022/06/23 01:31:47;;;;;;;;;;;18.40;99.90;;;;;;4982699;28;20527;-74
2022/06/23 01:34:31;;;;;;;;;;;18.40;99.90;;;;;;4966153;28;20302;-74
2022/06/23 01:37:06;;;;;;;;;;;18.30;99.90;;;;;;4949277;29;19953;-74
2022/06/23 01:39:47;;;;;;;;;;;18.20;99.90;;;;;;4952833;28;19929;-74
2022/06/23 01:42:32;;;;;;;;;;;18.20;99.90;;;;;;4953530;28;19953;-74
2022/06/23 01:45:06;;;;;;;;;;;18.10;99.90;;;;;;4966794;28;20279;-74
2022/06/23 01:47:53;;;;;;;;;;;18.10;99.90;;;;;;4950518;29;20394;-74
2022/06/23 01:50:29;;;;;;;;;;;18.10;99.90;;;;;;4951682;29;20021;-74
2022/06/23 01:53:15;;;;;;;;;;;18.00;99.90;;;;;;4951471;29;20584;-74
2022/06/23 01:55:54;;;;;;;;;;;18.00;99.90;;;;;;4965017;28;19964;-73
2022/06/23 01:58:22;;;;;;;;;;;17.90;99.90;;;;;;4948767;29;19929;-73
2022/06/23 02:00:58;;;;;;;;;;;17.90;99.90;;;;;;4955091;28;19930;-73
2022/06/23 02:03:37;;;;;;;;;;;17.90;99.90;;;;;;4952669;28;19926;-73
2022/06/23 02:06:10;;;;;;;;;;;17.90;99.90;;;;;;4949836;29;20496;-74
2022/06/23 02:08:55;;;;;;;;;;;17.90;99.90;;;;;;4950525;29;19932;-73
2022/06/23 02:11:43;;;;;;;;;;;17.80;99.90;;;;;;4949630;29;19923;-74
2022/06/23 02:14:14;;;;;;;;;;;17.80;99.90;;;;;;4951464;29;20290;-74
2022/06/23 02:16:54;;;;;;;;;;;17.80;99.90;;;;;;4965348;28;19949;-73
2022/06/23 02:19:24;;;;;;;;;;;17.70;99.90;;;;;;4949778;29;20271;-73
2022/06/23 02:21:52;;;;;;;;;;;17.70;99.90;;;;;;4967643;28;19973;-73
2022/06/23 02:24:26;;;;;;;;;;;17.70;99.90;;;;;;4966222;28;19929;-74
2022/06/23 02:27:17;;;;;;;;;;;17.70;99.90;;;;;;4966563;28;19927;-73
2022/06/23 02:29:55;;;;;;;;;;;17.60;99.90;;;;;;4966670;28;19954;-73
2022/06/23 02:32:42;;;;;;;;;;;17.60;99.90;;;;;;4967226;28;19923;-73
2022/06/23 02:35:16;;;;;;;;;;;17.60;99.90;;;;;;4950584;29;20381;-74
2022/06/23 02:37:46;;;;;;;;;;;17.60;99.90;;;;;;4964829;28;20384;-74
2022/06/23 02:40:21;;;;;;;;;;;17.60;99.90;;;;;;4951306;29;19926;-73
2022/06/23 02:42:51;;;;;;;;;;;17.50;99.90;;;;;;4967159;28;20283;-73
2022/06/23 02:45:23;;;;;;;;;;;17.60;99.90;;;;;;4947917;29;20384;-73
2022/06/23 02:48:04;;;;;;;;;;;17.60;99.90;;;;;;4944095;28;19964;-73
2022/06/23 02:50:40;;;;;;;;;;;17.70;99.90;;;;;;4951371;29;19929;-74
2022/06/23 02:53:29;;;;;;;;;;;17.70;99.90;;;;;;4952311;28;19927;-74
2022/06/23 02:56:01;;;;;;;;;;;17.70;99.90;;;;;;4955134;28;19926;-74
2022/06/23 02:58:48;;;;;;;;;;;17.70;99.90;;;;;;4964715;28;20379;-74
2022/06/23 03:01:21;;;;;;;;;;;17.70;99.90;;;;;;4949499;29;19936;-74
2022/06/23 03:04:12;;;;;;;;;;;17.80;99.90;;;;;;4952285;28;20009;-74
2022/06/23 03:06:54;;;;;;;;;;;17.70;99.90;;;;;;4965877;28;19961;-74
2022/06/23 03:09:32;;;;;;;;;;;17.60;99.90;;;;;;4963431;28;19922;-73
2022/06/23 03:12:11;;;;;;;;;;;17.60;99.90;;;;;;4950773;29;19933;-73
2022/06/23 03:15:01;;;;;;;;;;;17.50;99.90;;;;;;4951764;28;19922;-74
2022/06/23 03:17:33;;;;;;;;;;;17.50;99.90;;;;;;4947682;29;19932;-73
2022/06/23 03:20:18;;;;;;;;;;;17.50;99.90;;;;;;4951142;29;19989;-81
2022/06/23 03:22:57;;;;;;;;;;;17.50;99.90;;;;;;4948698;29;19927;-72
2022/06/23 03:25:39;;;;;;;;;;;17.40;99.90;;;;;;4952690;29;19922;-73
2022/06/23 03:28:14;;;;;;;;;;;17.60;99.90;;;;;;4968835;28;19922;-73
2022/06/23 03:31:01;;;;;;;;;;;17.70;99.90;;;;;;4956247;28;20387;-74
2022/06/23 03:33:36;;;;;;;;;;;17.70;99.90;;;;;;4968299;28;19932;-74
2022/06/23 03:36:24;;;;;;;;;;;17.70;99.90;;;;;;4953707;28;19933;-74
2022/06/23 03:42:04;;;;;;;;;;;17.40;99.90;;;;;;4951628;29;19926;-74
2022/06/23 03:44:54;;;;;;;;;;;17.30;99.90;;;;;;4954430;29;20294;-74
2022/06/23 03:47:41;;;;;;;;;;;17.30;99.90;;;;;;4953020;29;19929;-74
2022/06/23 03:50:18;;;;;;;;;;;17.20;99.90;;;;;;4955770;28;19923;-74
2022/06/23 03:52:56;;;;;;;;;;;17.20;99.90;;;;;;4953352;28;19926;-74
2022/06/23 03:55:36;;;;;;;;;;;17.10;99.90;;;;;;4954087;28;19933;-73
2022/06/23 03:58:11;;;;;;;;;;;17.10;99.90;;;;;;4954509;28;20391;-73
2022/06/23 04:00:39;;;;;;;;;;;17.10;99.90;;;;;;4969373;28;20426;-73
2022/06/23 04:03:25;;;;;;;;;;;17.10;99.90;;;;;;4953937;28;20017;-73
2022/06/23 04:05:56;;;;;;;;;;;17.10;99.90;;;;;;4951370;29;20434;-73
2022/06/23 04:08:30;;;;;;;;;;;17.10;99.90;;;;;;4955972;28;20009;-74
2022/06/23 04:14:04;;;;;;;;;;;17.10;99.90;;;;;;4954260;29;19922;-74
2022/06/23 04:16:37;;;;;;;;;;;17.20;99.90;;;;;;4953712;29;19926;-74
2022/06/23 04:19:30;;;;;;;;;;;17.30;99.90;;;;;;4955763;28;20009;-72
2022/06/23 04:22:04;;;;;;;;;;;17.20;99.90;;;;;;4951911;29;20017;-75
2022/06/23 04:24:32;;;;;;;;;;;17.20;99.90;;;;;;4955685;28;19922;-73
2022/06/23 04:27:06;;;;;;;;;;;17.30;99.90;;;;;;4954722;28;19924;-75
2022/06/23 04:29:38;;;;;;;;;;;17.30;99.90;;;;;;4955741;28;19922;-73
2022/06/23 04:32:13;;;;;;;;;;;17.40;99.90;;;;;;4953836;29;19922;-74
2022/06/23 04:35:06;;;;;;;;;;;17.40;99.90;;;;;;4955593;28;20005;-74
2022/06/23 04:37:32;;;;;;;;;;;17.50;99.90;;;;;;4944058;29;19945;-74
2022/06/23 04:40:14;;;;;;;;;;;17.50;99.90;;;;;;4955542;28;20295;-74
2022/06/23 04:42:49;;;;;;;;;;;17.50;99.90;;;;;;4943804;29;20284;-74
2022/06/23 04:45:32;;;;;;;;;;;17.60;99.90;;;;;;4969383;28;19929;-74
2022/06/23 04:48:06;;;;;;;;;;;17.60;99.90;;;;;;4950192;28;20025;-75
2022/06/23 04:50:41;;;;;;;;;;;17.60;99.90;;;;;;4966628;28;20343;-75
2022/06/23 04:53:25;;;;;;;;;;;17.60;99.90;;;;;;4953332;28;19922;-75
2022/06/23 04:56:07;;;;;;;;;;;17.60;99.90;;;;;;4945151;29;20397;-75
2022/06/23 04:58:43;;;;;;;;;;;17.60;99.90;;;;;;4949928;29;19926;-73
2022/06/23 05:01:17;;;;;;;;;;;17.60;99.90;;;;;;4961087;28;20303;-73
2022/06/23 05:03:52;;;;;;;;;;;17.60;99.90;;;;;;4964425;28;19977;-73
2022/06/23 05:06:41;;;;;;;;;;;17.70;99.90;;;;;;4952234;28;20012;-74
2022/06/23 05:09:18;;;;;;;;;;;17.70;99.90;;;;;;4968714;28;19929;-73
2022/06/23 05:11:52;;;;;;;;;;;17.70;99.90;;;;;;4953876;28;19927;-73
2022/06/23 05:14:31;;;;;;;;;;;17.70;99.90;;;;;;4967828;28;20020;-73
2022/06/23 05:17:22;;;;;;;;;;;17.80;99.90;;;;;;4950917;29;19930;-73
2022/06/23 05:19:52;;;;;;;;;;;17.90;99.90;;;;;;4952970;29;19922;-74
2022/06/23 05:22:30;;;;;;;;;;;17.90;99.90;;;;;;4941628;28;20376;-73
2022/06/23 05:25:28;;;;;;;;;;;18.00;99.90;;;;;;4953317;29;19922;-73
2022/06/23 05:28:01;;;;;;;;;;;18.00;99.90;;;;;;4943538;28;19930;-73
2022/06/23 05:30:41;;;;;;;;;;;18.10;99.90;;;;;;4965310;28;19969;-73
2022/06/23 05:33:12;;;;;;;;;;;18.20;99.90;;;;;;4968453;28;19929;-73
2022/06/23 05:35:53;;;;;;;;;;;18.20;99.90;;;;;;4948992;29;19922;-74
2022/06/23 05:38:31;;;;;;;;;;;18.30;99.90;;;;;;4962719;28;19931;-73
2022/06/23 05:41:04;;;;;;;;;;;18.40;99.90;;;;;;4951284;29;19938;-73
2022/06/23 05:43:39;;;;;;;;;;;18.50;99.90;;;;;;4954011;28;19973;-74
2022/06/23 05:46:06;;;;;;;;;;;18.50;99.90;;;;;;4945871;29;19930;-73
2022/06/23 05:48:43;;;;;;;;;;;18.60;99.90;;;;;;4966573;28;19930;-73
2022/06/23 05:51:21;;;;;;;;;;;18.70;99.90;;;;;;4962447;28;19926;-73
2022/06/23 05:54:02;;;;;;;;;;;18.80;99.90;;;;;;4950420;29;19942;-73
2022/06/23 05:56:34;;;;;;;;;;;19.00;99.90;;;;;;4950939;29;19922;-73
2022/06/23 05:59:11;;;;;;;;;;;19.00;99.90;;;;;;4951642;28;19934;-73
2022/06/23 06:01:41;;;;;;;;;;;19.10;99.90;;;;;;4947750;29;19936;-73
2022/06/23 06:04:29;;;;;;;;;;;19.10;99.90;;;;;;4939530;29;19926;-73
2022/06/23 06:07:00;;;;;;;;;;;19.20;99.90;;;;;;4950594;29;19938;-73
2022/06/23 06:09:37;;;;;;;;;;;19.20;99.90;;;;;;4952364;28;19944;-73
2022/06/23 06:12:17;;;;;;;;;;;19.30;99.90;;;;;;4964618;28;19926;-73
2022/06/23 06:15:07;;;;;;;;;;;19.30;99.90;;;;;;4952971;28;19966;-72
2022/06/23 06:17:40;;;;;;;;;;;19.40;99.90;;;;;;4945101;29;19922;-73
2022/06/23 06:20:13;;;;;;;;;;;19.40;99.90;;;;;;4963333;28;19923;-72
2022/06/23 06:22:48;;;;;;;;;;;19.50;99.90;;;;;;4953104;28;20299;-72
2022/06/23 06:25:24;;;;;;;;;;;19.50;99.90;;;;;;4952541;28;20418;-72
2022/06/23 06:27:57;;;;;;;;;;;19.60;99.90;;;;;;4949756;29;19933;-72
2022/06/23 06:30:31;;;;;;;;;;;19.60;99.90;;;;;;4951083;28;19922;-72
2022/06/23 06:32:58;;;;;;;;;;;19.60;99.90;;;;;;4967366;28;19926;-72
2022/06/23 06:35:36;;;;;;;;;;;19.70;99.90;;;;;;4956808;28;19922;-72
2022/06/23 06:38:12;;;;;;;;;;;19.80;99.90;;;;;;4949978;28;19922;-72
2022/06/23 06:40:40;;;;;;;;;;;19.80;99.90;;;;;;4967390;28;19926;-72
2022/06/23 06:43:09;;;;;;;;;;;19.90;99.90;;;;;;4952347;28;19926;-72
2022/06/23 06:45:41;;;;;;;;;;;19.90;99.90;;;;;;4938173;28;19926;-72
2022/06/23 06:48:13;;;;;;;;;;;20.00;99.90;;;;;;4950065;28;20022;-72
2022/06/23 06:50:42;;;;;;;;;;;20.00;99.90;;;;;;4950584;28;19929;-72
2022/06/23 06:53:17;;;;;;;;;;;20.00;99.90;;;;;;4954229;28;19922;-72
2022/06/23 06:55:56;;;;;;;;;;;20.00;99.90;;;;;;4949133;29;20291;-73
2022/06/23 06:58:25;;;;;;;;;;;20.00;99.90;;;;;;4950936;28;19922;-71
2022/06/23 07:01:26;;;;;;;;;;;20.10;99.90;;;;;;4961448;28;20386;-72
2022/06/23 07:03:58;;;;;;;;;;;20.20;99.90;;;;;;4977655;28;19930;-72
2022/06/23 07:06:30;;;;;;;;;;;20.20;99.90;;;;;;4955379;28;19928;-72
2022/06/23 07:09:03;;;;;;;;;;;20.30;99.90;;;;;;4983576;28;19977;-72
2022/06/23 07:11:34;;;;;;;;;;;20.40;99.90;;;;;;4952582;29;19972;-72
2022/06/23 07:14:18;;;;;;;;;;;20.50;99.90;;;;;;4955897;28;19970;-72
2022/06/23 07:16:54;;;;;;;;;;;20.60;99.90;;;;;;4969231;28;19984;-72
2022/06/23 07:19:34;;;;;;;;;;;20.60;99.90;;;;;;4969887;28;19930;-73
2022/06/23 07:22:11;;;;;;;;;;;20.70;99.90;;;;;;4952314;29;19932;-72
2022/06/23 07:24:48;;;;;;;;;;;20.80;99.90;;;;;;4955305;28;19930;-72
2022/06/23 07:27:25;;;;;;;;;;;20.80;99.90;;;;;;4951969;29;19923;-72
2022/06/23 07:29:55;;;;;;;;;;;20.80;99.90;;;;;;4952966;28;19922;-72
2022/06/23 07:32:45;;;;;;;;;;;20.90;99.90;;;;;;4942947;28;20391;-72
2022/06/23 07:35:37;;;;;;;;;;;20.90;99.90;;;;;;4955977;28;19926;-72
2022/06/23 07:38:06;;;;;;;;;;;21.00;99.90;;;;;;4944739;28;20052;-72
2022/06/23 07:40:57;;;;;;;;;;;21.00;99.90;;;;;;4952675;28;19930;-73
2022/06/23 07:43:37;;;;;;;;;;;21.10;99.90;;;;;;4942374;29;19926;-72
2022/06/23 07:46:04;;;;;;;;;;;21.10;99.90;;;;;;4969368;28;19926;-72
2022/06/23 07:48:36;;;;;;;;;;;21.20;99.90;;;;;;4953047;28;19926;-72
2022/06/23 07:51:09;;;;;;;;;;;21.30;99.90;;;;;;4960075;28;20372;-72
2022/06/23 07:53:42;;;;;;;;;;;21.40;99.90;;;;;;4954840;29;20291;-72
2022/06/23 07:56:16;;;;;;;;;;;21.50;99.90;;;;;;4950622;29;19926;-72
2022/06/23 07:58:49;;;;;;;;;;;21.60;99.90;;;;;;4954288;29;19954;-72
2022/06/23 08:01:32;;;;;;;;;;;21.70;99.90;;;;;;4952802;29;19937;-72
2022/06/23 08:04:24;;;;;;;;;;;21.70;99.90;;;;;;4953460;29;20385;-72
2022/06/23 08:06:57;;;;;;;;;;;21.80;99.90;;;;;;4938099;29;19929;-73
2022/06/23 08:09:30;;;;;;;;;;;21.90;99.90;;;;;;4967462;28;19927;-72
2022/06/23 08:18:16;;;;;;;;;;;22.30;99.90;;;;;;4950044;29;20009;-72
2022/06/23 08:20:53;;;;;;;;;;;22.40;99.90;;;;;;4952194;29;19933;-72
2022/06/23 08:23:26;;;;;;;;;;;22.40;99.90;;;;;;4952783;29;20039;-72
2022/06/23 08:25:59;;;;;;;;;;;22.40;99.90;;;;;;4953951;28;19965;-72
2022/06/23 08:28:31;;;;;;;;;;;22.50;99.90;;;;;;4953059;28;20375;-72
2022/06/23 08:31:03;;;;;;;;;;;22.60;99.90;;;;;;4950730;29;20008;-73
2022/06/23 08:33:35;;;;;;;;;;;22.80;99.90;;;;;;4961070;28;19922;-72
2022/06/23 08:36:13;;;;;;;;;;;22.90;99.90;;;;;;4953533;28;19926;-73
2022/06/23 08:38:44;;;;;;;;;;;23.00;99.90;;;;;;4947765;29;19933;-72
2022/06/23 08:41:21;;;;;;;;;;;23.20;99.90;;;;;;4952150;29;19929;-72
2022/06/23 08:43:52;;;;;;;;;;;23.20;99.90;;;;;;4954474;28;20013;-72
2022/06/23 08:46:34;;;;;;;;;;;23.30;99.90;;;;;;4953365;28;19922;-72
2022/06/23 08:49:14;;;;;;;;;;;23.40;99.90;;;;;;4952235;29;20422;-72
2022/06/23 08:51:59;;;;;;;;;;;23.50;99.90;;;;;;4953578;29;19933;-72
2022/06/23 08:54:35;;;;;;;;;;;23.60;99.90;;;;;;4953161;29;20298;-73
2022/06/23 08:57:11;;;;;;;;;;;23.60;99.90;;;;;;4952908;28;20020;-72
2022/06/23 08:59:45;;;;;;;;;;;23.70;99.90;;;;;;4952659;29;19933;-72
2022/06/23 09:02:20;;;;;;;;;;;23.80;99.90;;;;;;4966532;28;19926;-73
2022/06/23 09:04:58;;;;;;;;;;;23.90;99.90;;;;;;4953918;28;19930;-72
2022/06/23 09:07:35;;;;;;;;;;;24.00;99.90;;;;;;4949820;29;19922;-72
2022/06/23 09:10:23;;;;;;;;;;;24.20;99.90;;;;;;4951600;29;19926;-72
2022/06/23 09:13:16;;;;;;;;;;;24.30;99.90;;;;;;4950581;29;19934;-72
2022/06/23 09:15:48;;;;;;;;;;;24.30;99.90;;;;;;4967455;28;19930;-72
2022/06/23 09:18:44;;;;;;;;;;;24.20;99.90;;;;;;4962708;28;19961;-72
2022/06/23 09:21:22;;;;;;;;;;;24.30;99.90;;;;;;4950898;28;20021;-72
2022/06/23 09:23:53;;;;;;;;;;;24.30;99.90;;;;;;4953823;28;20291;-72
2022/06/23 09:26:41;;;;;;;;;;;24.40;99.90;;;;;;4952528;28;20278;-72
2022/06/23 09:29:19;;;;;;;;;;;24.50;99.90;;;;;;4952856;29;20351;-72
2022/06/23 09:31:51;;;;;;;;;;;24.60;99.90;;;;;;4953718;28;20437;-72
2022/06/23 09:34:41;;;;;;;;;;;24.80;99.90;;;;;;4950453;29;20837;-72
2022/06/23 09:37:32;;;;;;;;;;;25.00;99.90;;;;;;4958710;28;19922;-72
2022/06/23 09:40:16;;;;;;;;;;;25.30;99.90;;;;;;4949297;29;20523;-72
2022/06/23 09:43:23;;;;;;;;;;;25.40;99.90;;;;;;4949824;29;19939;-73
2022/06/23 09:46:13;;;;;;;;;;;25.40;99.90;;;;;;4917674;29;19922;-73
2022/06/23 09:49:03;;;;;;;;;;;25.40;99.90;;;;;;4949877;29;19926;-72
2022/06/23 09:51:54;;;;;;;;;;;25.60;99.90;;;;;;4945933;28;19932;-72
2022/06/23 09:54:39;;;;;;;;;;;25.80;99.90;;;;;;4961720;28;19926;-72
2022/06/23 09:57:23;;;;;;;;;;;25.90;99.90;;;;;;4949864;29;19923;-73
2022/06/23 09:59:56;;;;;;;;;;;26.00;99.90;;;;;;4952461;29;20417;-73
2022/06/23 10:02:42;;;;;;;;;;;26.10;99.90;;;;;;4949985;29;19926;-72
2022/06/23 10:05:17;;;;;;;;;;;26.30;99.90;;;;;;4967734;28;19926;-73
2022/06/23 10:08:07;;;;;;;;;;;26.40;99.90;;;;;;4945115;28;19934;-71
2022/06/23 10:10:58;;;;;;;;;;;26.50;99.90;;;;;;4949829;29;20750;-71
2022/06/23 10:13:48;;;;;;;;;;;26.50;99.90;;;;;;4952764;28;19922;-71
2022/06/23 10:16:30;;;;;;;;;;;26.40;99.90;;;;;;4949161;28;19929;-71
2022/06/23 10:19:15;;;;;;;;;;;26.40;99.90;;;;;;4952194;29;19928;-71
2022/06/23 10:22:05;;;;;;;;;;;26.60;99.90;;;;;;4953081;28;19930;-72
2022/06/23 10:24:43;;;;;;;;;;;26.70;99.90;;;;;;4952602;28;20521;-71
2022/06/23 10:27:14;;;;;;;;;;;26.90;99.90;;;;;;4951440;28;20021;-71
2022/06/23 10:29:52;;;;;;;;;;;27.00;99.90;;;;;;4952153;29;19930;-71
2022/06/23 10:32:27;;;;;;;;;;;27.10;99.90;;;;;;4950214;29;19926;-72
2022/06/23 10:35:02;;;;;;;;;;;27.10;99.90;;;;;;4951693;28;19933;-71
2022/06/23 10:37:50;;;;;;;;;;;27.10;99.90;;;;;;4949208;29;19922;-72
2022/06/23 10:40:24;;;;;;;;;;;27.30;99.90;;;;;;4951224;29;19922;-71
2022/06/23 10:43:05;;;;;;;;;;;27.40;99.90;;;;;;4949054;29;20299;-71
2022/06/23 10:45:41;;;;;;;;;;;27.40;99.90;;;;;;4951964;28;20402;-71
2022/06/23 10:48:19;;;;;;;;;;;27.40;99.90;;;;;;4951741;29;20016;-71
2022/06/23 10:50:51;;;;;;;;;;;27.30;99.90;;;;;;4952607;28;19961;-71
2022/06/23 10:53:33;;;;;;;;;;;27.30;99.90;;;;;;4952519;29;20399;-72
2022/06/23 10:56:13;;;;;;;;;;;27.40;99.90;;;;;;4949002;29;20420;-72
2022/06/23 10:58:48;;;;;;;;;;;27.40;99.30;;;;;;4952829;28;19930;-72
2022/06/23 11:01:22;;;;;;;;;;;27.50;99.90;;;;;;4953053;28;19933;-72
2022/06/23 11:04:06;;;;;;;;;;;27.60;99.60;;;;;;4949891;29;20013;-71
2022/06/23 11:06:44;;;;;;;;;;;27.80;98.40;;;;;;4947910;28;20291;-71
2022/06/23 11:09:19;;;;;;;;;;;28.00;98.70;;;;;;4950379;29;20029;-71
2022/06/23 11:11:52;;;;;;;;;;;28.10;98.00;;;;;;4952381;28;19922;-71
2022/06/23 11:14:35;;;;;;;;;;;28.20;98.40;;;;;;4952206;28;19934;-71
2022/06/23 11:17:16;;;;;;;;;;;28.30;97.40;;;;;;4948933;29;19946;-71
2022/06/23 11:20:11;;;;;;;;;;;28.50;97.90;;;;;;4942963;29;19951;-72
2022/06/23 11:22:43;;;;;;;;;;;28.60;97.10;;;;;;4949137;29;20295;-71
2022/06/23 11:25:19;;;;;;;;;;;28.60;95.50;;;;;;4952782;28;19922;-71
2022/06/23 11:27:51;;;;;;;;;;;28.60;94.90;;;;;;4951126;29;19922;-71
2022/06/23 11:30:41;;;;;;;;;;;28.70;94.20;;;;;;4951928;29;19923;-71
2022/06/23 11:33:20;;;;;;;;;;;28.80;93.70;;;;;;4949414;29;19926;-72
2022/06/23 11:36:00;;;;;;;;;;;28.90;94.30;;;;;;4949506;29;19929;-73
2022/06/23 11:39:01;;;;;;;;;;;29.00;94.20;;;;;;4950053;28;19923;-71
2022/06/23 11:41:35;;;;;;;;;;;28.90;91.50;;;;;;4945266;29;19922;-71
2022/06/23 11:44:16;;;;;;;;;;;28.90;91.80;;;;;;4948490;28;19926;-73
2022/06/23 11:47:08;;;;;;;;;;;29.10;92.20;;;;;;4950774;29;19930;-72
2022/06/23 11:49:45;;;;;;;;;;;29.10;91.80;;;;;;4951998;29;19933;-71
2022/06/23 11:52:23;;;;;;;;;;;29.20;93.00;;;;;;4952807;28;19922;-71
2022/06/23 11:55:13;;;;;;;;;;;29.20;91.40;;;;;;4953581;29;20447;-72
2022/06/23 11:57:48;;;;;;;;;;;29.30;91.60;;;;;;4948746;29;20032;-72
2022/06/23 12:00:25;;;;;;;;;;;29.40;92.30;;;;;;4942180;28;19930;-72
2022/06/23 12:03:21;;;;;;;;;;;29.50;91.20;;;;;;4945343;28;20013;-71
2022/06/23 12:05:59;;;;;;;;;;;29.50;90.80;;;;;;4950787;29;19922;-71
2022/06/23 12:08:35;;;;;;;;;;;29.60;91.70;;;;;;4952835;29;19930;-72
2022/06/23 12:11:06;;;;;;;;;;;29.70;92.30;;;;;;4953266;28;19965;-72
2022/06/23 12:13:39;;;;;;;;;;;29.80;92.70;;;;;;4952862;28;19966;-71
2022/06/23 12:16:11;;;;;;;;;;;29.70;91.30;;;;;;4953186;28;19926;-71
2022/06/23 12:19:00;;;;;;;;;;;29.80;91.60;;;;;;4953643;28;19922;-70
2022/06/23 12:21:41;;;;;;;;;;;29.90;93.20;;;;;;4953635;29;20403;-71
2022/06/23 12:24:19;;;;;;;;;;;30.10;91.80;;;;;;4953060;29;19980;-72
2022/06/23 12:26:56;;;;;;;;;;;30.20;87.70;;;;;;4951055;29;20311;-72
2022/06/23 12:29:46;;;;;;;;;;;30.20;90.30;;;;;;4947754;29;20414;-70
2022/06/23 12:32:27;;;;;;;;;;;30.30;88.90;;;;;;4952113;29;20505;-72
2022/06/23 12:35:02;;;;;;;;;;;30.40;87.00;;;;;;4952117;28;19929;-72
2022/06/23 12:37:48;;;;;;;;;;;30.50;88.70;;;;;;4949860;28;19930;-71
2022/06/23 12:40:34;;;;;;;;;;;30.50;90.30;;;;;;4953087;29;20375;-72
2022/06/23 12:43:13;;;;;;;;;;;30.60;89.20;;;;;;4953922;29;20022;-71
2022/06/23 12:45:49;;;;;;;;;;;30.70;89.60;;;;;;4950885;29;19926;-71
2022/06/23 12:48:42;;;;;;;;;;;30.60;87.10;;;;;;4953258;28;19929;-71
2022/06/23 12:51:26;;;;;;;;;;;30.60;87.40;;;;;;4953829;29;19930;-72
2022/06/23 12:54:06;;;;;;;;;;;30.60;87.70;;;;;;4949988;28;19933;-72
2022/06/23 12:56:38;;;;;;;;;;;30.80;89.00;;;;;;4946369;28;19927;-73
2022/06/23 12:59:12;;;;;;;;;;;31.00;88.50;;;;;;4952536;28;19926;-71
2022/06/23 13:01:47;;;;;;;;;;;31.10;85.70;;;;;;4951371;29;20326;-71
2022/06/23 13:04:37;;;;;;;;;;;31.00;84.80;;;;;;4952510;28;19930;-72
2022/06/23 13:07:18;;;;;;;;;;;30.70;84.50;;;;;;4947960;29;19985;-71
2022/06/23 13:09:49;;;;;;;;;;;30.50;86.90;;;;;;4958374;28;19937;-71
2022/06/23 13:12:32;;;;;;;;;;;30.50;87.20;;;;;;4946547;28;19927;-71
2022/06/23 13:15:16;;;;;;;;;;;30.40;86.00;;;;;;4959265;28;20005;-71
2022/06/23 13:18:01;;;;;;;;;;;30.40;84.90;;;;;;4949743;29;19937;-71
2022/06/23 13:20:48;;;;;;;;;;;30.60;85.00;;;;;;4951236;29;19926;-71
2022/06/23 13:23:23;;;;;;;;;;;30.70;87.00;;;;;;4948926;29;19949;-71
2022/06/23 13:25:56;;;;;;;;;;;30.90;85.70;;;;;;4950572;29;19930;-71
2022/06/23 13:28:30;;;;;;;;;;;31.10;85.90;;;;;;4951870;28;20410;-71
2022/06/23 13:31:10;;;;;;;;;;;31.20;84.30;;;;;;4955136;28;19926;-71
2022/06/23 13:33:58;;;;;;;;;;;31.40;86.10;;;;;;4962167;28;20303;-72
2022/06/23 13:36:40;;;;;;;;;;;31.60;83.60;;;;;;4947598;28;19926;-71
2022/06/23 13:39:18;;;;;;;;;;;31.70;83.40;;;;;;4951277;29;20394;-72
2022/06/23 13:41:55;;;;;;;;;;;31.90;83.70;;;;;;4951274;28;19936;-71
2022/06/23 13:44:31;;;;;;;;;;;31.90;81.90;;;;;;4949127;29;19922;-71
2022/06/23 13:47:06;;;;;;;;;;;32.00;79.80;;;;;;4972873;28;19930;-71
2022/06/23 13:49:43;;;;;;;;;;;31.90;80.40;;;;;;4949468;29;19922;-71
2022/06/23 13:52:32;;;;;;;;;;;31.70;80.20;;;;;;4950367;29;20291;-71
2022/06/23 13:55:11;;;;;;;;;;;31.80;80.30;;;;;;4948470;29;19922;-71
2022/06/23 13:57:50;;;;;;;;;;;32.00;78.90;;;;;;4949142;29;20379;-71
2022/06/23 14:00:26;;;;;;;;;;;32.10;75.90;;;;;;4950882;29;19923;-71
2022/06/23 14:03:20;;;;;;;;;;;32.20;77.10;;;;;;4950149;29;20417;-71
2022/06/23 14:06:07;;;;;;;;;;;32.10;78.00;;;;;;4949587;29;19933;-70
2022/06/23 14:08:57;;;;;;;;;;;32.20;77.50;;;;;;4951188;28;19980;-70
2022/06/23 14:11:44;;;;;;;;;;;32.30;79.00;;;;;;4963062;28;19922;-72
2022/06/23 14:14:26;;;;;;;;;;;32.40;78.70;;;;;;4950212;29;19922;-71
2022/06/23 14:17:10;;;;;;;;;;;32.60;77.10;;;;;;4949061;29;19965;-71
2022/06/23 14:19:42;;;;;;;;;;;32.70;76.90;;;;;;4950789;29;19922;-71
2022/06/23 14:22:20;;;;;;;;;;;32.80;75.50;;;;;;4950969;28;19977;-71
2022/06/23 14:24:56;;;;;;;;;;;32.90;76.40;;;;;;4961922;28;19934;-72
2022/06/23 14:27:48;;;;;;;;;;;32.90;75.70;;;;;;4949721;28;19926;-71
2022/06/23 14:30:25;;;;;;;;;;;33.10;75.00;;;;;;4951586;28;20021;-71
2022/06/23 14:33:10;;;;;;;;;;;33.10;76.10;;;;;;4950301;29;20410;-71
2022/06/23 14:35:50;;;;;;;;;;;33.10;75.60;;;;;;4964518;28;19922;-71
2022/06/23 14:38:31;;;;;;;;;;;33.10;75.50;;;;;;4964573;28;20291;-71
2022/06/23 14:41:12;;;;;;;;;;;33.10;75.00;;;;;;4951017;29;19923;-71
2022/06/23 14:43:43;;;;;;;;;;;33.00;74.00;;;;;;4964637;28;19937;-71
2022/06/23 14:46:24;;;;;;;;;;;33.10;75.30;;;;;;4949233;29;20288;-71
2022/06/23 14:49:00;;;;;;;;;;;33.20;75.30;;;;;;4950407;29;19927;-72
2022/06/23 14:51:39;;;;;;;;;;;33.30;74.40;;;;;;4949990;29;19933;-72
2022/06/23 14:54:28;;;;;;;;;;;33.50;74.10;;;;;;4950023;29;19931;-71
2022/06/23 14:57:00;;;;;;;;;;;33.60;73.30;;;;;;4948562;29;19930;-71
2022/06/23 14:59:38;;;;;;;;;;;33.80;72.40;;;;;;4946540;28;19930;-72
2022/06/23 15:02:10;;;;;;;;;;;33.70;71.70;;;;;;4950676;28;19937;-71
2022/06/23 15:04:54;;;;;;;;;;;33.90;72.20;;;;;;4949850;29;19930;-71
2022/06/23 15:07:29;;;;;;;;;;;34.00;71.80;;;;;;4947047;29;19993;-71
2022/06/23 15:10:01;;;;;;;;;;;34.00;71.70;;;;;;4948824;29;19966;-69
2022/06/23 15:12:43;;;;;;;;;;;34.10;72.30;;;;;;4955514;28;20378;-69
2022/06/23 15:15:38;;;;;;;;;;;34.10;73.60;;;;;;4948490;29;19922;-69
2022/06/23 15:18:21;;;;;;;;;;;34.20;72.10;;;;;;4953784;28;19930;-69
2022/06/23 15:23:09;;;;;;;;;;;34.20;71.90;;;;;;4967358;28;20303;-69
2022/06/23 15:24:06;;;;;;;;;;;34.30;71.20;;;;;;4954662;29;19923;-69
2022/06/23 15:26:41;;;;;;;;;;;34.40;71.90;;;;;;4966342;28;19965;-70
2022/06/23 15:29:18;;;;;;;;;;;34.40;71.40;;;;;;4953559;28;19927;-69
2022/06/23 15:32:00;;;;;;;;;;;34.50;71.40;;;;;;4952342;28;19935;-70
2022/06/23 15:34:38;;;;;;;;;;;34.60;70.50;;;;;;4955202;28;20296;-70